sensor_id;sensor_type;location;lat;lon;timestamp;temperature;humidity
5059;DHT22;2548;52.050;11.036;2023-04-06T00:01:59;0.90;99.90
5059;DHT22;2548;52.050;11.036;2023-04-06T00:04:27;0.90;99.90
5059;DHT22;2548;52.050;11.036;2023-04-06T00:06:56;0.90;99.90
5059;DHT22;2548;52.050;11.036;2023-04-06T00:09:23;0.90;99.90
5059;DHT22;2548;52.050;11.036;2023-04-06T00:11:51;0.90;99.90
5059;DHT22;2548;52.050;11.036;2023-04-06T00:14:18;0.80;99.90
5059;DHT22;2548;52.050;11.036;2023-04-06T00:16:46;0.80;99.90
5059;DHT22;2548;52.050;11.036;2023-04-06T00:19:13;0.80;99.90
5059;DHT22;2548;52.050;11.036;2023-04-06T00:21:41;0.80;99.90
5059;DHT22;2548;52.050;11.036;2023-04-06T00:24:10;0.80;99.90
5059;DHT22;2548;52.050;11.036;2023-04-06T00:26:38;0.80;99.90
5059;DHT22;2548;52.050;11.036;2023-04-06T00:29:05;0.80;99.90
5059;DHT22;2548;52.050;11.036;2023-04-06T00:31:33;0.80;99.90
5059;DHT22;2548;52.050;11.036;2023-04-06T00:34:00;0.70;99.90
5059;DHT22;2548;52.050;11.036;2023-04-06T00:36:28;0.70;99.90
5059;DHT22;2548;52.050;11.036;2023-04-06T00:38:56;0.70;99.90
5059;DHT22;2548;52.050;11.036;2023-04-06T00:41:25;0.60;99.90
5059;DHT22;2548;52.050;11.036;2023-04-06T00:43:53;0.60;99.90
5059;DHT22;2548;52.050;11.036;2023-04-06T00:46:21;0.60;99.90
5059;DHT22;2548;52.050;11.036;2023-04-06T00:48:48;0.50;99.90
5059;DHT22;2548;52.050;11.036;2023-04-06T00:51:16;0.50;99.90
5059;DHT22;2548;52.050;11.036;2023-04-06T00:53:44;0.50;99.90
5059;DHT22;2548;52.050;11.036;2023-04-06T00:56:13;0.50;99.90
5059;DHT22;2548;52.050;11.036;2023-04-06T00:58:50;0.50;99.90
5059;DHT22;2548;52.050;11.036;2023-04-06T01:01:18;0.50;99.90
5059;DHT22;2548;52.050;11.036;2023-04-06T01:03:48;0.50;99.90
5059;DHT22;2548;52.050;11.036;2023-04-06T01:06:17;0.50;99.90
5059;DHT22;2548;52.050;11.036;2023-04-06T01:08:54;0.50;99.90
5059;DHT22;2548;52.050;11.036;2023-04-06T01:11:24;0.40;99.90
5059;DHT22;2548;52.050;11.036;2023-04-06T01:13:54;0.40;99.90
5059;DHT22;2548;52.050;11.036;2023-04-06T01:16:37;0.40;99.90
5059;DHT22;2548;52.050;11.036;2023-04-06T01:19:25;0.40;99.90
5059;DHT22;2548;52.050;11.036;2023-04-06T01:21:54;0.30;99.90
5059;DHT22;2548;52.050;11.036;2023-04-06T01:24:23;0.30;99.90
5059;DHT22;2548;52.050;11.036;2023-04-06T01:27:10;0.30;99.90
5059;DHT22;2548;52.050;11.036;2023-04-06T01:29:52;0.30;99.90
5059;DHT22;2548;52.050;11.036;2023-04-06T01:32:40;0.20;99.90
5059;DHT22;2548;52.050;11.036;2023-04-06T01:35:10;0.20;99.90
5059;DHT22;2548;52.050;11.036;2023-04-06T01:37:45;0.20;99.90
5059;DHT22;2548;52.050;11.036;2023-04-06T01:40:20;0.20;99.90
5059;DHT22;2548;52.050;11.036;2023-04-06T01:42:51;0.20;99.90
5059;DHT22;2548;52.050;11.036;2023-04-06T01:45:27;0.20;99.90
5059;DHT22;2548;52.050;11.036;2023-04-06T01:48:00;0.10;99.90
5059;DHT22;2548;52.050;11.036;2023-04-06T01:50:29;0.10;99.90
5059;DHT22;2548;52.050;11.036;2023-04-06T01:52:56;0.00;99.90
5059;DHT22;2548;52.050;11.036;2023-04-06T01:55:27;0.00;99.90
5059;DHT22;2548;52.050;11.036;2023-04-06T01:58:14;0.00;99.90
5059;DHT22;2548;52.050;11.036;2023-04-06T02:00:42;0.00;99.90
5059;DHT22;2548;52.050;11.036;2023-04-06T02:03:10;-0.10;99.90
5059;DHT22;2548;52.050;11.036;2023-04-06T02:05:38;-0.10;99.90
5059;DHT22;2548;52.050;11.036;2023-04-06T02:08:21;-0.10;99.90
5059;DHT22;2548;52.050;11.036;2023-04-06T02:10:50;-0.10;99.90
5059;DHT22;2548;52.050;11.036;2023-04-06T02:13:29;-0.10;99.90
5059;DHT22;2548;52.050;11.036;2023-04-06T02:15:57;-0.10;99.90
5059;DHT22;2548;52.050;11.036;2023-04-06T02:18:26;-0.10;99.90
5059;DHT22;2548;52.050;11.036;2023-04-06T02:20:55;-0.10;99.90
5059;DHT22;2548;52.050;11.036;2023-04-06T02:23:23;-0.10;99.90
5059;DHT22;2548;52.050;11.036;2023-04-06T02:25:52;-0.10;99.90
5059;DHT22;2548;52.050;11.036;2023-04-06T02:28:19;-0.10;99.90
5059;DHT22;2548;52.050;11.036;2023-04-06T02:30:47;-0.10;99.90
5059;DHT22;2548;52.050;11.036;2023-04-06T02:33:14;-0.10;99.90
5059;DHT22;2548;52.050;11.036;2023-04-06T02:35:45;-0.10;99.90
5059;DHT22;2548;52.050;11.036;2023-04-06T02:38:13;-0.10;99.90
5059;DHT22;2548;52.050;11.036;2023-04-06T02:40:41;-0.10;99.90
5059;DHT22;2548;52.050;11.036;2023-04-06T02:43:27;0.00;99.90
5059;DHT22;2548;52.050;11.036;2023-04-06T02:46:02;0.00;99.90
5059;DHT22;2548;52.050;11.036;2023-04-06T02:48:34;0.10;99.90
5059;DHT22;2548;52.050;11.036;2023-04-06T02:51:02;0.00;99.90
5059;DHT22;2548;52.050;11.036;2023-04-06T02:53:30;0.00;99.90
5059;DHT22;2548;52.050;11.036;2023-04-06T02:55:58;0.00;99.90
5059;DHT22;2548;52.050;11.036;2023-04-06T02:58:34;0.00;99.90
5059;DHT22;2548;52.050;11.036;2023-04-06T03:01:02;-0.10;99.90
5059;DHT22;2548;52.050;11.036;2023-04-06T03:03:30;-0.10;99.90
5059;DHT22;2548;52.050;11.036;2023-04-06T03:05:58;-0.10;99.90
5059;DHT22;2548;52.050;11.036;2023-04-06T03:08:29;-0.10;99.90
5059;DHT22;2548;52.050;11.036;2023-04-06T03:10:57;-0.20;99.90
5059;DHT22;2548;52.050;11.036;2023-04-06T03:13:36;-0.20;99.90
5059;DHT22;2548;52.050;11.036;2023-04-06T03:16:04;-0.20;99.90
5059;DHT22;2548;52.050;11.036;2023-04-06T03:18:32;-0.20;99.90
5059;DHT22;2548;52.050;11.036;2023-04-06T03:21:00;-0.20;99.90
5059;DHT22;2548;52.050;11.036;2023-04-06T03:23:44;-0.20;99.90
5059;DHT22;2548;52.050;11.036;2023-04-06T03:26:11;-0.30;99.90
5059;DHT22;2548;52.050;11.036;2023-04-06T03:28:40;-0.20;99.90
5059;DHT22;2548;52.050;11.036;2023-04-06T03:31:08;-0.30;99.90
5059;DHT22;2548;52.050;11.036;2023-04-06T03:34:11;-0.20;99.90
5059;DHT22;2548;52.050;11.036;2023-04-06T03:36:38;-0.20;99.90
5059;DHT22;2548;52.050;11.036;2023-04-06T03:39:06;-0.20;99.90
5059;DHT22;2548;52.050;11.036;2023-04-06T03:41:37;-0.30;99.90
5059;DHT22;2548;52.050;11.036;2023-04-06T03:44:26;-0.40;99.90
5059;DHT22;2548;52.050;11.036;2023-04-06T03:46:54;-0.60;99.90
5059;DHT22;2548;52.050;11.036;2023-04-06T03:49:22;-0.70;99.90
5059;DHT22;2548;52.050;11.036;2023-04-06T03:51:52;-0.70;99.90
5059;DHT22;2548;52.050;11.036;2023-04-06T03:54:20;-0.80;99.90
5059;DHT22;2548;52.050;11.036;2023-04-06T03:56:47;-0.80;99.90
5059;DHT22;2548;52.050;11.036;2023-04-06T03:59:15;-0.90;99.90
5059;DHT22;2548;52.050;11.036;2023-04-06T04:01:44;-0.90;99.90
5059;DHT22;2548;52.050;11.036;2023-04-06T04:04:11;-0.90;99.90
5059;DHT22;2548;52.050;11.036;2023-04-06T04:06:39;-0.90;99.90
5059;DHT22;2548;52.050;11.036;2023-04-06T04:09:08;-0.90;99.90
5059;DHT22;2548;52.050;11.036;2023-04-06T04:11:35;-0.90;99.90
5059;DHT22;2548;52.050;11.036;2023-04-06T04:14:03;-0.90;99.90
5059;DHT22;2548;52.050;11.036;2023-04-06T04:16:31;-0.90;99.90
5059;DHT22;2548;52.050;11.036;2023-04-06T04:18:59;-0.80;99.90
5059;DHT22;2548;52.050;11.036;2023-04-06T04:21:29;-0.80;99.90
5059;DHT22;2548;52.050;11.036;2023-04-06T04:23:58;-0.70;99.90
5059;DHT22;2548;52.050;11.036;2023-04-06T04:26:26;-0.60;99.90
5059;DHT22;2548;52.050;11.036;2023-04-06T04:28:54;-0.60;99.90
5059;DHT22;2548;52.050;11.036;2023-04-06T04:31:21;-0.50;99.90
5059;DHT22;2548;52.050;11.036;2023-04-06T04:33:53;-0.60;99.90
5059;DHT22;2548;52.050;11.036;2023-04-06T04:36:28;-0.60;99.90
5059;DHT22;2548;52.050;11.036;2023-04-06T04:38:58;-0.50;99.90
5059;DHT22;2548;52.050;11.036;2023-04-06T04:41:29;-0.60;99.90
5059;DHT22;2548;52.050;11.036;2023-04-06T04:43:58;-0.50;99.90
5059;DHT22;2548;52.050;11.036;2023-04-06T04:46:27;-0.50;99.90
5059;DHT22;2548;52.050;11.036;2023-04-06T04:48:55;-0.50;99.90
5059;DHT22;2548;52.050;11.036;2023-04-06T04:51:23;-0.60;99.90
5059;DHT22;2548;52.050;11.036;2023-04-06T04:54:08;-0.60;99.90
5059;DHT22;2548;52.050;11.036;2023-04-06T04:56:35;-0.60;99.90
5059;DHT22;2548;52.050;11.036;2023-04-06T04:59:16;-0.60;99.90
5059;DHT22;2548;52.050;11.036;2023-04-06T05:01:50;-0.50;99.90
5059;DHT22;2548;52.050;11.036;2023-04-06T05:04:18;-0.60;99.90
5059;DHT22;2548;52.050;11.036;2023-04-06T05:06:47;-0.60;99.90
5059;DHT22;2548;52.050;11.036;2023-04-06T05:09:16;-0.60;99.90
5059;DHT22;2548;52.050;11.036;2023-04-06T05:11:44;-0.60;99.90
5059;DHT22;2548;52.050;11.036;2023-04-06T05:14:12;-0.60;99.90
5059;DHT22;2548;52.050;11.036;2023-04-06T05:16:40;-0.60;99.90
5059;DHT22;2548;52.050;11.036;2023-04-06T05:19:07;-0.60;99.90
5059;DHT22;2548;52.050;11.036;2023-04-06T05:21:40;-0.60;99.90
5059;DHT22;2548;52.050;11.036;2023-04-06T05:24:09;-0.60;99.90
5059;DHT22;2548;52.050;11.036;2023-04-06T05:26:39;-0.50;99.90
5059;DHT22;2548;52.050;11.036;2023-04-06T05:29:14;-0.50;99.90
5059;DHT22;2548;52.050;11.036;2023-04-06T05:31:41;-0.50;99.90
5059;DHT22;2548;52.050;11.036;2023-04-06T05:34:09;-0.50;99.90
5059;DHT22;2548;52.050;11.036;2023-04-06T05:36:38;-0.40;99.90
5059;DHT22;2548;52.050;11.036;2023-04-06T05:39:15;-0.30;99.90
5059;DHT22;2548;52.050;11.036;2023-04-06T05:41:48;-0.30;99.90
5059;DHT22;2548;52.050;11.036;2023-04-06T05:44:21;-0.30;99.90
5059;DHT22;2548;52.050;11.036;2023-04-06T05:46:57;-0.20;99.90
5059;DHT22;2548;52.050;11.036;2023-04-06T05:49:24;-0.20;99.90
5059;DHT22;2548;52.050;11.036;2023-04-06T05:51:52;-0.10;99.90
5059;DHT22;2548;52.050;11.036;2023-04-06T05:54:20;-0.10;99.90
5059;DHT22;2548;52.050;11.036;2023-04-06T05:56:49;0.00;99.90
5059;DHT22;2548;52.050;11.036;2023-04-06T05:59:17;0.00;99.90
5059;DHT22;2548;52.050;11.036;2023-04-06T06:01:45;0.00;99.90
5059;DHT22;2548;52.050;11.036;2023-04-06T06:04:13;0.10;99.90
5059;DHT22;2548;52.050;11.036;2023-04-06T06:06:41;0.20;99.90
5059;DHT22;2548;52.050;11.036;2023-04-06T06:09:13;0.20;99.90
5059;DHT22;2548;52.050;11.036;2023-04-06T06:11:51;0.40;99.90
5059;DHT22;2548;52.050;11.036;2023-04-06T06:14:21;0.40;99.90
5059;DHT22;2548;52.050;11.036;2023-04-06T06:16:49;0.50;99.90
5059;DHT22;2548;52.050;11.036;2023-04-06T06:19:16;0.50;99.90
5059;DHT22;2548;52.050;11.036;2023-04-06T06:21:45;0.60;99.90
5059;DHT22;2548;52.050;11.036;2023-04-06T06:24:12;0.70;99.90
5059;DHT22;2548;52.050;11.036;2023-04-06T06:26:40;0.80;99.90
5059;DHT22;2548;52.050;11.036;2023-04-06T06:29:10;0.80;99.90
5059;DHT22;2548;52.050;11.036;2023-04-06T06:31:39;0.90;99.90
5059;DHT22;2548;52.050;11.036;2023-04-06T06:34:07;1.00;99.90
5059;DHT22;2548;52.050;11.036;2023-04-06T06:36:36;1.10;99.90
5059;DHT22;2548;52.050;11.036;2023-04-06T06:39:07;1.10;99.90
5059;DHT22;2548;52.050;11.036;2023-04-06T06:41:34;1.20;99.90
5059;DHT22;2548;52.050;11.036;2023-04-06T06:44:02;1.30;99.90
5059;DHT22;2548;52.050;11.036;2023-04-06T06:46:31;1.40;99.90
5059;DHT22;2548;52.050;11.036;2023-04-06T06:48:59;1.50;99.90
5059;DHT22;2548;52.050;11.036;2023-04-06T06:51:27;1.60;99.90
5059;DHT22;2548;52.050;11.036;2023-04-06T06:53:54;1.60;99.90
5059;DHT22;2548;52.050;11.036;2023-04-06T06:56:22;1.70;99.90
5059;DHT22;2548;52.050;11.036;2023-04-06T06:58:51;1.80;99.90
5059;DHT22;2548;52.050;11.036;2023-04-06T07:01:18;1.90;99.90
5059;DHT22;2548;52.050;11.036;2023-04-06T07:03:47;2.00;99.90
5059;DHT22;2548;52.050;11.036;2023-04-06T07:06:15;2.10;99.90
5059;DHT22;2548;52.050;11.036;2023-04-06T07:08:43;2.20;99.90
5059;DHT22;2548;52.050;11.036;2023-04-06T07:11:10;2.30;99.90
5059;DHT22;2548;52.050;11.036;2023-04-06T07:13:38;2.50;99.90
5059;DHT22;2548;52.050;11.036;2023-04-06T07:16:06;2.60;99.90
5059;DHT22;2548;52.050;11.036;2023-04-06T07:18:33;2.70;99.90
5059;DHT22;2548;52.050;11.036;2023-04-06T07:21:03;2.80;99.90
5059;DHT22;2548;52.050;11.036;2023-04-06T07:23:30;2.90;99.90
5059;DHT22;2548;52.050;11.036;2023-04-06T07:25:58;3.10;99.90
5059;DHT22;2548;52.050;11.036;2023-04-06T07:28:26;3.20;99.90
5059;DHT22;2548;52.050;11.036;2023-04-06T07:30:54;3.30;99.90
5059;DHT22;2548;52.050;11.036;2023-04-06T07:33:22;3.50;99.90
5059;DHT22;2548;52.050;11.036;2023-04-06T07:35:50;3.70;99.90
5059;DHT22;2548;52.050;11.036;2023-04-06T07:38:20;3.80;99.90
5059;DHT22;2548;52.050;11.036;2023-04-06T07:40:47;4.00;99.90
5059;DHT22;2548;52.050;11.036;2023-04-06T07:43:15;4.10;99.90
5059;DHT22;2548;52.050;11.036;2023-04-06T07:45:43;4.20;99.90
5059;DHT22;2548;52.050;11.036;2023-04-06T07:48:11;4.40;99.90
5059;DHT22;2548;52.050;11.036;2023-04-06T07:50:39;4.50;99.90
5059;DHT22;2548;52.050;11.036;2023-04-06T07:53:08;4.70;99.90
5059;DHT22;2548;52.050;11.036;2023-04-06T07:55:39;4.90;99.90
5059;DHT22;2548;52.050;11.036;2023-04-06T07:58:06;5.00;99.90
5059;DHT22;2548;52.050;11.036;2023-04-06T08:00:34;5.20;99.90
5059;DHT22;2548;52.050;11.036;2023-04-06T08:03:01;5.30;99.90
5059;DHT22;2548;52.050;11.036;2023-04-06T08:05:29;5.40;99.90
5059;DHT22;2548;52.050;11.036;2023-04-06T08:07:56;5.50;99.90
5059;DHT22;2548;52.050;11.036;2023-04-06T08:10:24;5.60;99.90
5059;DHT22;2548;52.050;11.036;2023-04-06T08:12:53;5.80;99.90
5059;DHT22;2548;52.050;11.036;2023-04-06T08:15:21;5.90;99.90
5059;DHT22;2548;52.050;11.036;2023-04-06T08:17:48;6.00;99.90
5059;DHT22;2548;52.050;11.036;2023-04-06T08:20:16;6.10;99.90
5059;DHT22;2548;52.050;11.036;2023-04-06T08:22:44;6.20;99.90
5059;DHT22;2548;52.050;11.036;2023-04-06T08:25:11;6.40;99.90
5059;DHT22;2548;52.050;11.036;2023-04-06T08:27:39;6.50;99.90
5059;DHT22;2548;52.050;11.036;2023-04-06T08:30:09;6.60;99.90
5059;DHT22;2548;52.050;11.036;2023-04-06T08:32:36;6.80;99.90
5059;DHT22;2548;52.050;11.036;2023-04-06T08:35:04;6.90;99.90
5059;DHT22;2548;52.050;11.036;2023-04-06T08:37:33;7.00;99.90
5059;DHT22;2548;52.050;11.036;2023-04-06T08:40:00;7.10;99.90
5059;DHT22;2548;52.050;11.036;2023-04-06T08:42:32;7.30;99.90
5059;DHT22;2548;52.050;11.036;2023-04-06T08:45:00;7.40;99.90
5059;DHT22;2548;52.050;11.036;2023-04-06T08:47:29;7.60;99.90
5059;DHT22;2548;52.050;11.036;2023-04-06T08:49:57;7.70;99.90
5059;DHT22;2548;52.050;11.036;2023-04-06T08:52:27;7.90;99.90
5059;DHT22;2548;52.050;11.036;2023-04-06T08:54:55;8.10;99.90
5059;DHT22;2548;52.050;11.036;2023-04-06T08:57:22;8.20;99.90
5059;DHT22;2548;52.050;11.036;2023-04-06T08:59:50;8.40;99.90
5059;DHT22;2548;52.050;11.036;2023-04-06T09:02:19;8.50;99.90
5059;DHT22;2548;52.050;11.036;2023-04-06T09:04:49;8.60;99.90
5059;DHT22;2548;52.050;11.036;2023-04-06T09:07:20;8.70;99.90
5059;DHT22;2548;52.050;11.036;2023-04-06T09:09:48;8.80;99.90
5059;DHT22;2548;52.050;11.036;2023-04-06T09:12:25;8.80;99.90
5059;DHT22;2548;52.050;11.036;2023-04-06T09:14:53;8.90;99.90
5059;DHT22;2548;52.050;11.036;2023-04-06T09:17:21;9.10;99.90
5059;DHT22;2548;52.050;11.036;2023-04-06T09:19:50;9.20;99.90
5059;DHT22;2548;52.050;11.036;2023-04-06T09:22:18;9.30;99.90
5059;DHT22;2548;52.050;11.036;2023-04-06T09:24:49;9.50;99.90
5059;DHT22;2548;52.050;11.036;2023-04-06T09:27:17;9.60;99.90
5059;DHT22;2548;52.050;11.036;2023-04-06T09:29:45;9.80;99.90
5059;DHT22;2548;52.050;11.036;2023-04-06T09:32:12;9.90;99.90
5059;DHT22;2548;52.050;11.036;2023-04-06T09:34:43;10.00;99.90
5059;DHT22;2548;52.050;11.036;2023-04-06T09:37:17;10.10;99.90
5059;DHT22;2548;52.050;11.036;2023-04-06T09:39:46;10.20;99.90
5059;DHT22;2548;52.050;11.036;2023-04-06T09:42:23;10.20;99.90
5059;DHT22;2548;52.050;11.036;2023-04-06T09:44:51;10.30;99.90
5059;DHT22;2548;52.050;11.036;2023-04-06T09:47:20;10.40;99.90
5059;DHT22;2548;52.050;11.036;2023-04-06T09:49:55;10.50;99.90
5059;DHT22;2548;52.050;11.036;2023-04-06T09:52:32;10.60;99.90
5059;DHT22;2548;52.050;11.036;2023-04-06T09:55:04;10.70;99.90
5059;DHT22;2548;52.050;11.036;2023-04-06T09:57:40;10.80;99.90
5059;DHT22;2548;52.050;11.036;2023-04-06T10:00:13;10.80;99.90
5059;DHT22;2548;52.050;11.036;2023-04-06T10:02:49;10.80;99.90
5059;DHT22;2548;52.050;11.036;2023-04-06T10:05:22;10.90;99.90
5059;DHT22;2548;52.050;11.036;2023-04-06T10:07:59;11.00;99.90
5059;DHT22;2548;52.050;11.036;2023-04-06T10:10:29;11.10;99.90
5059;DHT22;2548;52.050;11.036;2023-04-06T10:12:58;11.10;99.90
5059;DHT22;2548;52.050;11.036;2023-04-06T10:15:27;11.20;99.90
5059;DHT22;2548;52.050;11.036;2023-04-06T10:17:56;11.30;99.90
5059;DHT22;2548;52.050;11.036;2023-04-06T10:20:29;11.40;99.90
5059;DHT22;2548;52.050;11.036;2023-04-06T10:23:06;11.40;99.90
5059;DHT22;2548;52.050;11.036;2023-04-06T10:25:34;11.50;99.90
5059;DHT22;2548;52.050;11.036;2023-04-06T10:28:08;11.70;99.90
5059;DHT22;2548;52.050;11.036;2023-04-06T10:30:42;11.70;99.90
5059;DHT22;2548;52.050;11.036;2023-04-06T10:33:13;11.80;99.90
5059;DHT22;2548;52.050;11.036;2023-04-06T10:35:41;11.90;99.90
5059;DHT22;2548;52.050;11.036;2023-04-06T10:38:10;12.00;99.90
5059;DHT22;2548;52.050;11.036;2023-04-06T10:40:41;12.10;99.90
5059;DHT22;2548;52.050;11.036;2023-04-06T10:43:12;12.10;99.90
5059;DHT22;2548;52.050;11.036;2023-04-06T10:45:40;12.20;99.90
5059;DHT22;2548;52.050;11.036;2023-04-06T10:48:16;12.30;99.70
5059;DHT22;2548;52.050;11.036;2023-04-06T10:50:49;12.30;99.70
5059;DHT22;2548;52.050;11.036;2023-04-06T10:53:22;12.40;99.40
5059;DHT22;2548;52.050;11.036;2023-04-06T10:55:51;12.50;98.10
5059;DHT22;2548;52.050;11.036;2023-04-06T10:58:20;12.60;99.00
5059;DHT22;2548;52.050;11.036;2023-04-06T11:00:48;12.60;98.00
5059;DHT22;2548;52.050;11.036;2023-04-06T11:03:17;12.50;97.70
5059;DHT22;2548;52.050;11.036;2023-04-06T11:05:46;12.50;97.60
5059;DHT22;2548;52.050;11.036;2023-04-06T11:08:28;12.60;97.90
5059;DHT22;2548;52.050;11.036;2023-04-06T11:11:10;12.60;97.50
5059;DHT22;2548;52.050;11.036;2023-04-06T11:13:42;12.70;97.50
5059;DHT22;2548;52.050;11.036;2023-04-06T11:16:14;12.80;97.60
5059;DHT22;2548;52.050;11.036;2023-04-06T11:19:01;12.80;96.60
5059;DHT22;2548;52.050;11.036;2023-04-06T11:21:34;13.00;97.00
5059;DHT22;2548;52.050;11.036;2023-04-06T11:24:11;13.00;97.80
5059;DHT22;2548;52.050;11.036;2023-04-06T11:26:42;13.10;98.20
5059;DHT22;2548;52.050;11.036;2023-04-06T11:29:10;13.10;96.90
5059;DHT22;2548;52.050;11.036;2023-04-06T11:31:44;13.10;96.60
5059;DHT22;2548;52.050;11.036;2023-04-06T11:34:13;13.10;98.40
5059;DHT22;2548;52.050;11.036;2023-04-06T11:36:44;13.10;96.60
5059;DHT22;2548;52.050;11.036;2023-04-06T11:39:18;13.10;97.10
5059;DHT22;2548;52.050;11.036;2023-04-06T11:41:48;13.20;97.20
5059;DHT22;2548;52.050;11.036;2023-04-06T11:44:26;13.30;97.40
5059;DHT22;2548;52.050;11.036;2023-04-06T11:47:03;13.40;97.80
5059;DHT22;2548;52.050;11.036;2023-04-06T11:49:32;13.50;97.10
5059;DHT22;2548;52.050;11.036;2023-04-06T11:52:15;13.50;97.30
5059;DHT22;2548;52.050;11.036;2023-04-06T11:54:48;13.50;97.60
5059;DHT22;2548;52.050;11.036;2023-04-06T11:57:17;13.50;96.90
5059;DHT22;2548;52.050;11.036;2023-04-06T11:59:45;13.50;95.30
5059;DHT22;2548;52.050;11.036;2023-04-06T12:02:13;13.50;96.20
5059;DHT22;2548;52.050;11.036;2023-04-06T12:04:56;13.40;96.20
5059;DHT22;2548;52.050;11.036;2023-04-06T12:07:23;13.30;96.40
5059;DHT22;2548;52.050;11.036;2023-04-06T12:09:53;13.30;95.40
5059;DHT22;2548;52.050;11.036;2023-04-06T12:12:20;13.30;95.30
5059;DHT22;2548;52.050;11.036;2023-04-06T12:14:48;13.50;96.10
5059;DHT22;2548;52.050;11.036;2023-04-06T12:17:16;13.70;96.20
5059;DHT22;2548;52.050;11.036;2023-04-06T12:19:44;13.80;96.00
5059;DHT22;2548;52.050;11.036;2023-04-06T12:22:11;13.90;95.70
5059;DHT22;2548;52.050;11.036;2023-04-06T12:24:39;13.90;95.10
5059;DHT22;2548;52.050;11.036;2023-04-06T12:27:08;14.10;94.90
5059;DHT22;2548;52.050;11.036;2023-04-06T12:29:37;14.20;95.00
5059;DHT22;2548;52.050;11.036;2023-04-06T12:32:06;14.30;93.90
5059;DHT22;2548;52.050;11.036;2023-04-06T12:34:34;14.30;94.50
5059;DHT22;2548;52.050;11.036;2023-04-06T12:37:02;14.30;93.10
5059;DHT22;2548;52.050;11.036;2023-04-06T12:39:30;14.30;92.70
5059;DHT22;2548;52.050;11.036;2023-04-06T12:41:58;14.40;92.10
5059;DHT22;2548;52.050;11.036;2023-04-06T12:44:29;14.30;92.30
5059;DHT22;2548;52.050;11.036;2023-04-06T12:46:57;14.30;93.00
5059;DHT22;2548;52.050;11.036;2023-04-06T12:49:26;14.30;92.40
5059;DHT22;2548;52.050;11.036;2023-04-06T12:51:53;14.30;92.00
5059;DHT22;2548;52.050;11.036;2023-04-06T12:54:21;14.40;92.60
5059;DHT22;2548;52.050;11.036;2023-04-06T12:56:49;14.50;93.10
5059;DHT22;2548;52.050;11.036;2023-04-06T12:59:20;14.50;93.10
5059;DHT22;2548;52.050;11.036;2023-04-06T13:01:49;14.70;93.50
5059;DHT22;2548;52.050;11.036;2023-04-06T13:04:16;14.80;92.10
5059;DHT22;2548;52.050;11.036;2023-04-06T13:06:44;14.80;90.80
5059;DHT22;2548;52.050;11.036;2023-04-06T13:09:12;14.70;90.40
5059;DHT22;2548;52.050;11.036;2023-04-06T13:11:40;14.50;91.50
5059;DHT22;2548;52.050;11.036;2023-04-06T13:14:08;14.60;92.00
5059;DHT22;2548;52.050;11.036;2023-04-06T13:16:36;14.60;90.30
5059;DHT22;2548;52.050;11.036;2023-04-06T13:19:08;14.50;91.50
5059;DHT22;2548;52.050;11.036;2023-04-06T13:21:37;14.60;91.80
5059;DHT22;2548;52.050;11.036;2023-04-06T13:24:05;14.50;90.90
5059;DHT22;2548;52.050;11.036;2023-04-06T13:26:32;14.60;91.50
5059;DHT22;2548;52.050;11.036;2023-04-06T13:29:00;14.60;91.30
5059;DHT22;2548;52.050;11.036;2023-04-06T13:31:28;14.60;90.50
5059;DHT22;2548;52.050;11.036;2023-04-06T13:33:56;14.60;91.30
5059;DHT22;2548;52.050;11.036;2023-04-06T13:36:26;14.60;92.20
5059;DHT22;2548;52.050;11.036;2023-04-06T13:38:54;14.70;91.30
5059;DHT22;2548;52.050;11.036;2023-04-06T13:41:23;14.70;90.90
5059;DHT22;2548;52.050;11.036;2023-04-06T13:43:52;14.70;91.10
5059;DHT22;2548;52.050;11.036;2023-04-06T13:46:20;14.70;91.40
5059;DHT22;2548;52.050;11.036;2023-04-06T13:48:50;14.70;90.80
5059;DHT22;2548;52.050;11.036;2023-04-06T13:51:20;14.70;91.00
5059;DHT22;2548;52.050;11.036;2023-04-06T13:53:52;14.60;90.50
5059;DHT22;2548;52.050;11.036;2023-04-06T13:56:24;14.60;91.40
5059;DHT22;2548;52.050;11.036;2023-04-06T13:58:53;14.60;90.30
5059;DHT22;2548;52.050;11.036;2023-04-06T14:01:22;14.40;90.70
5059;DHT22;2548;52.050;11.036;2023-04-06T14:03:52;14.50;90.50
5059;DHT22;2548;52.050;11.036;2023-04-06T14:06:23;14.50;90.60
5059;DHT22;2548;52.050;11.036;2023-04-06T14:08:52;14.40;90.70
5059;DHT22;2548;52.050;11.036;2023-04-06T14:11:20;14.40;87.60
5059;DHT22;2548;52.050;11.036;2023-04-06T14:13:48;14.40;91.60
5059;DHT22;2548;52.050;11.036;2023-04-06T14:16:16;14.50;91.50
5059;DHT22;2548;52.050;11.036;2023-04-06T14:18:51;14.60;90.80
5059;DHT22;2548;52.050;11.036;2023-04-06T14:21:18;14.50;90.40
5059;DHT22;2548;52.050;11.036;2023-04-06T14:23:49;14.50;90.30
5059;DHT22;2548;52.050;11.036;2023-04-06T14:26:18;14.50;90.80
5059;DHT22;2548;52.050;11.036;2023-04-06T14:28:49;14.50;91.70
5059;DHT22;2548;52.050;11.036;2023-04-06T14:31:19;14.60;91.00
5059;DHT22;2548;52.050;11.036;2023-04-06T14:33:49;14.60;90.40
5059;DHT22;2548;52.050;11.036;2023-04-06T14:36:17;14.50;90.00
5059;DHT22;2548;52.050;11.036;2023-04-06T14:38:45;14.50;90.40
5059;DHT22;2548;52.050;11.036;2023-04-06T14:41:18;14.40;90.00
5059;DHT22;2548;52.050;11.036;2023-04-06T14:43:49;14.40;91.40
5059;DHT22;2548;52.050;11.036;2023-04-06T14:46:18;14.40;91.90
5059;DHT22;2548;52.050;11.036;2023-04-06T14:48:47;14.40;90.80
5059;DHT22;2548;52.050;11.036;2023-04-06T14:51:21;14.40;89.80
5059;DHT22;2548;52.050;11.036;2023-04-06T14:53:48;14.30;90.80
5059;DHT22;2548;52.050;11.036;2023-04-06T14:56:21;14.30;91.10
5059;DHT22;2548;52.050;11.036;2023-04-06T14:58:49;14.40;91.40
5059;DHT22;2548;52.050;11.036;2023-04-06T15:01:18;14.40;91.20
5059;DHT22;2548;52.050;11.036;2023-04-06T15:03:47;14.30;90.60
5059;DHT22;2548;52.050;11.036;2023-04-06T15:06:15;14.20;90.70
5059;DHT22;2548;52.050;11.036;2023-04-06T15:08:45;14.30;90.90
5059;DHT22;2548;52.050;11.036;2023-04-06T15:11:14;14.20;91.00
5059;DHT22;2548;52.050;11.036;2023-04-06T15:13:43;14.10;91.00
5059;DHT22;2548;52.050;11.036;2023-04-06T15:16:11;14.10;91.30
5059;DHT22;2548;52.050;11.036;2023-04-06T15:18:40;14.00;90.30
5059;DHT22;2548;52.050;11.036;2023-04-06T15:21:09;14.00;91.70
5059;DHT22;2548;52.050;11.036;2023-04-06T15:23:37;14.10;91.30
5059;DHT22;2548;52.050;11.036;2023-04-06T15:26:10;14.10;90.90
5059;DHT22;2548;52.050;11.036;2023-04-06T15:28:37;14.10;91.30
5059;DHT22;2548;52.050;11.036;2023-04-06T15:31:14;14.10;91.00
5059;DHT22;2548;52.050;11.036;2023-04-06T15:33:45;14.10;90.60
5059;DHT22;2548;52.050;11.036;2023-04-06T15:36:22;14.00;90.00
5059;DHT22;2548;52.050;11.036;2023-04-06T15:38:50;13.90;90.30
5059;DHT22;2548;52.050;11.036;2023-04-06T15:41:18;13.80;90.40
5059;DHT22;2548;52.050;11.036;2023-04-06T15:43:49;13.80;90.30
5059;DHT22;2548;52.050;11.036;2023-04-06T15:46:18;13.80;90.80
5059;DHT22;2548;52.050;11.036;2023-04-06T15:48:46;13.90;90.60
5059;DHT22;2548;52.050;11.036;2023-04-06T15:51:13;13.80;89.60
5059;DHT22;2548;52.050;11.036;2023-04-06T15:53:42;13.80;90.50
5059;DHT22;2548;52.050;11.036;2023-04-06T15:56:10;13.70;90.80
5059;DHT22;2548;52.050;11.036;2023-04-06T15:58:41;13.60;90.50
5059;DHT22;2548;52.050;11.036;2023-04-06T16:01:15;13.60;91.30
5059;DHT22;2548;52.050;11.036;2023-04-06T16:03:44;13.60;90.50
5059;DHT22;2548;52.050;11.036;2023-04-06T16:06:12;13.60;91.40
5059;DHT22;2548;52.050;11.036;2023-04-06T16:08:42;13.50;91.10
5059;DHT22;2548;52.050;11.036;2023-04-06T16:11:12;13.50;91.30